createdAt,value
2019-04-21T00:00:24.071Z,17.62
2019-04-21T00:02:53.718Z,18.42
2019-04-21T00:05:49.875Z,15.00
2019-04-21T00:08:18.165Z,15.50
2019-04-21T00:10:48.663Z,16.05
2019-04-21T00:13:08.200Z,15.28
2019-04-21T00:15:33.555Z,20.40
2019-04-21T00:18:01.015Z,19.35
2019-04-21T00:20:41.258Z,14.45
2019-04-21T00:23:22.614Z,18.17
2019-04-21T00:25:49.883Z,17.20
2019-04-21T00:28:34.701Z,13.58
2019-04-21T00:30:57.340Z,18.37
2019-04-21T00:33:13.875Z,14.35
2019-04-21T00:35:46.480Z,20.08
2019-04-21T00:38:25.008Z,14.85
2019-04-21T00:41:00.404Z,14.15
2019-04-21T00:43:25.244Z,14.35
2019-04-21T00:45:48.094Z,13.83
2019-04-21T00:48:30.458Z,12.68
2019-04-21T00:51:23.060Z,17.00
2019-04-21T00:53:45.119Z,14.95
2019-04-21T00:56:08.981Z,14.53
2019-04-21T00:58:35.668Z,16.27
2019-04-21T01:01:01.827Z,14.33
2019-04-21T01:03:43.628Z,16.30
2019-04-21T01:06:08.245Z,13.58
2019-04-21T01:08:35.976Z,17.50
2019-04-21T01:11:11.272Z,14.18
2019-04-21T01:13:43.471Z,13.53
2019-04-21T01:16:14.291Z,19.05
2019-04-21T01:18:38.146Z,12.15
2019-04-21T01:20:49.838Z,17.07
2019-04-21T01:23:19.237Z,12.10
2019-04-21T01:26:00.571Z,13.62
2019-04-21T01:28:34.350Z,13.30
2019-04-21T01:31:08.720Z,21.68
2019-04-21T01:33:44.730Z,16.35
2019-04-21T01:36:10.998Z,16.62
2019-04-21T01:41:16.151Z,15.65
2019-04-21T01:43:42.757Z,19.27
2019-04-21T01:46:11.209Z,12.65
2019-04-21T01:48:41.611Z,12.95
2019-04-21T01:51:11.543Z,12.25
2019-04-21T01:53:53.480Z,11.48
2019-04-21T01:56:35.664Z,13.10
2019-04-21T01:58:53.941Z,15.25
2019-04-21T02:01:33.642Z,13.28
2019-04-21T02:04:02.737Z,16.42
2019-04-21T02:06:33.081Z,11.88
2019-04-21T02:09:06.255Z,15.35
2019-04-21T02:11:35.754Z,17.35
2019-04-21T02:14:12.958Z,16.30
2019-04-21T02:16:37.673Z,15.55
2019-04-21T02:19:04.403Z,16.17
2019-04-21T02:21:31.932Z,11.80
2019-04-21T02:24:14.410Z,12.35
2019-04-21T02:26:39.836Z,14.23
2019-04-21T02:29:14.296Z,14.20
2019-04-21T02:31:45.278Z,11.93
2019-04-21T02:34:27.905Z,10.58
2019-04-21T02:39:23.130Z,14.70
2019-04-21T02:42:05.257Z,12.45
2019-04-21T02:44:30.312Z,13.98
2019-04-21T02:46:58.675Z,20.55
2019-04-21T02:49:45.328Z,13.58
2019-04-21T02:51:54.221Z,16.23
2019-04-21T03:05:13.544Z,13.55
2019-04-21T03:07:42.782Z,21.73
2019-04-21T03:09:49.714Z,18.75
2019-04-21T03:15:03.963Z,17.15
2019-04-21T03:17:35.814Z,15.35
2019-04-21T03:20:00.326Z,19.12
2019-04-21T03:22:24.259Z,13.28
2019-04-21T03:27:52.761Z,13.28
2019-04-21T03:30:01.027Z,15.18
2019-04-21T03:37:35.020Z,20.90
2019-04-21T03:40:00.712Z,15.75
2019-04-21T03:47:30.774Z,15.65
2019-04-21T03:52:39.483Z,14.30
2019-04-21T03:55:50.896Z,15.83
2019-04-21T04:01:02.814Z,17.02
2019-04-21T04:06:05.399Z,20.25
2019-04-21T04:08:52.486Z,16.40
2019-04-21T04:21:20.931Z,15.75
2019-04-21T04:26:13.050Z,12.98
2019-04-21T04:29:04.241Z,16.77
2019-04-21T04:31:25.820Z,17.27
2019-04-21T04:36:31.147Z,16.73
2019-04-21T04:39:00.779Z,18.92
2019-04-21T04:41:28.455Z,15.63
2019-04-21T04:44:04.522Z,14.00
2019-04-21T04:46:33.402Z,16.07
2019-04-21T04:49:06.137Z,16.42
2019-04-21T04:51:49.888Z,14.60
2019-04-21T04:53:53.927Z,17.30
2019-04-21T04:56:38.795Z,15.45
2019-04-21T04:59:23.257Z,16.45
2019-04-21T05:04:05.872Z,16.77
2019-04-21T05:06:53.886Z,18.87
2019-04-21T05:23:59.985Z,16.55
2019-04-21T05:26:23.044Z,16.97
2019-04-21T05:28:52.389Z,15.55
2019-04-21T05:31:40.036Z,18.60
2019-04-21T05:34:18.859Z,17.52
2019-04-21T05:36:56.791Z,18.25
2019-04-21T05:39:36.083Z,20.75
2019-04-21T05:41:55.205Z,18.98
2019-04-21T05:44:42.002Z,18.80
2019-04-21T05:47:20.178Z,22.32
2019-04-21T05:49:42.072Z,19.55
2019-04-21T05:52:02.526Z,18.07
2019-04-21T05:54:48.572Z,22.75
2019-04-21T05:57:11.557Z,26.62
2019-04-21T05:59:43.561Z,20.68
2019-04-21T06:07:27.096Z,23.18
2019-04-21T06:09:51.387Z,22.10
2019-04-21T06:12:14.661Z,20.35
2019-04-21T06:14:50.831Z,21.45
2019-04-21T06:17:25.039Z,22.37
2019-04-21T06:19:49.576Z,21.70
2019-04-21T06:22:13.873Z,22.93
2019-04-21T06:25:15.770Z,25.08
2019-04-21T06:27:22.962Z,19.85
2019-04-21T06:29:49.141Z,19.92
2019-04-21T06:32:30.476Z,22.42
2019-04-21T06:35:08.370Z,18.35
2019-04-21T06:37:40.487Z,20.57
2019-04-21T06:40:10.438Z,19.32
2019-04-21T06:42:18.554Z,26.25
2019-04-21T06:45:01.876Z,23.32
2019-04-21T06:47:31.213Z,20.82
2019-04-21T06:49:53.720Z,23.35
2019-04-21T06:54:57.114Z,21.85
2019-04-21T06:57:32.123Z,22.40
2019-04-21T06:59:55.297Z,18.50
2019-04-21T07:05:05.578Z,22.48
2019-04-21T07:07:27.926Z,25.88
2019-04-21T07:10:04.846Z,22.10
2019-04-21T07:12:29.730Z,21.07
2019-04-21T07:15:21.851Z,21.73
2019-04-21T07:17:45.408Z,21.07
2019-04-21T07:20:07.299Z,22.10
2019-04-21T07:22:37.673Z,24.80
2019-04-21T07:25:02.958Z,20.45
2019-04-21T07:27:35.144Z,22.85
2019-04-21T07:30:06.756Z,22.73
2019-04-21T07:32:44.229Z,20.37
2019-04-21T07:35:08.376Z,20.70
2019-04-21T07:37:35.322Z,25.70
2019-04-21T07:40:07.801Z,24.55
2019-04-21T07:42:33.986Z,25.02
2019-04-21T07:45:02.371Z,22.67
2019-04-21T07:47:55.323Z,20.77
2019-04-21T07:50:47.471Z,25.77
2019-04-21T07:53:30.318Z,20.80
2019-04-21T07:55:32.617Z,23.15
2019-04-21T07:58:22.627Z,23.30
2019-04-21T08:00:56.556Z,19.48
2019-04-21T08:03:43.910Z,23.22
2019-04-21T08:05:59.178Z,27.50
2019-04-21T08:08:22.053Z,24.72
2019-04-21T08:10:52.349Z,25.07
2019-04-21T08:13:34.176Z,25.02
2019-04-21T08:15:58.306Z,25.12
2019-04-21T08:18:28.634Z,23.42
2019-04-21T08:21:00.790Z,27.00
2019-04-21T08:23:35.322Z,25.20
2019-04-21T08:28:31.959Z,23.47
2019-04-21T08:31:01.390Z,23.95
2019-04-21T08:33:41.469Z,26.62
2019-04-21T08:38:35.949Z,29.23
2019-04-21T08:41:11.072Z,22.80
2019-04-21T08:46:06.816Z,23.05
2019-04-21T08:48:40.411Z,23.62
2019-04-21T08:51:24.495Z,27.95
2019-04-21T08:53:42.752Z,25.37
2019-04-21T08:56:15.054Z,24.98
2019-04-21T08:58:54.157Z,22.98
2019-04-21T09:01:33.029Z,24.60
2019-04-21T09:04:01.564Z,26.15
2019-04-21T09:06:41.959Z,25.17
2019-04-21T09:11:29.561Z,24.80
2019-04-21T09:14:01.103Z,28.60
2019-04-21T09:16:31.116Z,31.45
2019-04-21T09:18:56.913Z,24.90
2019-04-21T09:21:38.953Z,25.32
2019-04-21T09:24:10.277Z,24.47
2019-04-21T09:26:29.321Z,21.68
2019-04-21T09:29:00.678Z,24.98
2019-04-21T09:31:24.040Z,25.90
2019-04-21T09:33:51.906Z,23.98
2019-04-21T09:36:21.619Z,27.73
2019-04-21T09:38:58.701Z,27.42
2019-04-21T09:41:22.901Z,25.65
2019-04-21T09:43:53.655Z,23.10
2019-04-21T09:46:20.857Z,27.25
2019-04-21T09:48:57.248Z,23.87
2019-04-21T09:51:20.248Z,27.17
2019-04-21T09:53:57.230Z,25.75
2019-04-21T09:56:31.435Z,24.25
2019-04-21T09:58:52.195Z,22.48
2019-04-21T10:01:27.107Z,26.82
2019-04-21T10:03:55.207Z,22.67
2019-04-21T10:06:20.824Z,26.55
2019-04-21T10:08:57.489Z,24.18
2019-04-21T10:11:21.018Z,22.02
2019-04-21T10:13:50.867Z,26.48
2019-04-21T10:16:23.901Z,24.90
2019-04-21T10:18:52.491Z,26.80
2019-04-21T10:21:24.416Z,32.10
2019-04-21T10:23:54.263Z,26.05
2019-04-21T10:26:24.283Z,27.70
2019-04-21T10:28:53.174Z,26.82
2019-04-21T10:31:22.790Z,31.75
2019-04-21T10:33:52.518Z,24.65
2019-04-21T10:36:21.211Z,24.72
2019-04-21T10:38:52.224Z,21.82
2019-04-21T10:41:21.471Z,27.55
2019-04-21T10:43:51.355Z,21.05
2019-04-21T10:46:20.022Z,23.85
2019-04-21T10:48:48.798Z,25.97
2019-04-21T10:51:17.499Z,28.20
2019-04-21T10:53:52.366Z,23.52
2019-04-21T10:56:29.132Z,24.98
2019-04-21T10:58:52.204Z,26.65
2019-04-21T11:01:25.559Z,31.27
2019-04-21T11:03:56.158Z,21.60
2019-04-21T11:06:28.768Z,26.77
2019-04-21T11:08:59.970Z,20.48
2019-04-21T11:11:30.158Z,22.90
2019-04-21T11:13:59.167Z,16.52
2019-04-21T11:16:29.016Z,17.70
2019-04-21T11:18:58.059Z,24.67
2019-04-21T11:21:27.185Z,26.20
2019-04-21T11:23:56.577Z,16.10
2019-04-21T11:26:25.562Z,16.55
2019-04-21T11:28:54.923Z,17.95
2019-04-21T11:31:25.014Z,17.65
2019-04-21T11:33:55.261Z,17.57
2019-04-21T11:36:24.993Z,16.77
2019-04-21T11:39:12.607Z,18.87
2019-04-21T11:41:29.743Z,18.67
2019-04-21T11:43:59.177Z,19.60
2019-04-21T11:46:30.661Z,20.30
2019-04-21T11:49:00.068Z,18.20
2019-04-21T11:51:28.987Z,21.15
2019-04-21T11:53:57.562Z,20.65
2019-04-21T11:56:27.220Z,23.75
2019-04-21T11:58:57.538Z,18.37
2019-04-21T12:01:27.537Z,18.42
2019-04-21T12:03:57.822Z,19.57
2019-04-21T12:06:33.099Z,23.40
2019-04-21T12:08:59.835Z,20.65
2019-04-21T12:11:29.304Z,16.48
2019-04-21T12:13:58.443Z,21.73
2019-04-21T12:16:28.663Z,16.05
2019-04-21T12:18:58.804Z,16.17
2019-04-21T12:21:39.033Z,18.48
2019-04-21T12:24:00.654Z,15.38
2019-04-21T12:26:33.775Z,16.62
2019-04-21T12:29:03.802Z,14.83
2019-04-21T12:31:41.281Z,14.38
2019-04-21T12:34:12.063Z,14.00
2019-04-21T12:36:42.097Z,14.28
2019-04-21T12:39:12.867Z,14.93
2019-04-21T12:41:42.620Z,17.15
2019-04-21T12:44:11.246Z,20.92
2019-04-21T12:46:40.123Z,20.57
2019-04-21T12:49:09.757Z,20.50
2019-04-21T12:51:39.676Z,19.75
2019-04-21T12:54:09.748Z,17.67
2019-04-21T12:56:38.430Z,14.95
2019-04-21T12:59:08.011Z,16.87
2019-04-21T13:01:37.105Z,17.73
2019-04-21T13:04:06.121Z,22.00
2019-04-21T13:06:35.050Z,21.10
2019-04-21T13:09:09.368Z,13.60
2019-04-21T13:11:37.126Z,17.85
2019-04-21T13:14:06.236Z,16.17
2019-04-21T13:16:34.791Z,14.78
2019-04-21T13:19:04.992Z,16.70
2019-04-21T13:21:34.261Z,14.80
2019-04-21T13:24:03.126Z,15.80
2019-04-21T13:26:42.946Z,17.52
2019-04-21T13:29:06.016Z,14.60
2019-04-21T13:31:36.152Z,12.63
2019-04-21T13:34:06.051Z,14.58
2019-04-21T13:36:35.992Z,13.10
2019-04-21T13:39:38.209Z,15.08
2019-04-21T13:41:50.579Z,12.82
2019-04-21T13:44:13.259Z,14.73
2019-04-21T13:46:44.867Z,13.93
2019-04-21T13:49:14.411Z,11.90
2019-04-21T13:51:43.997Z,14.73
2019-04-21T13:54:14.073Z,12.75
2019-04-21T13:56:42.944Z,10.48
2019-04-21T13:59:11.497Z,10.10
2019-04-21T14:01:41.306Z,12.80
2019-04-21T14:04:13.657Z,12.53
2019-04-21T14:06:42.965Z,13.10
2019-04-21T14:09:13.907Z,12.25
2019-04-21T14:11:43.506Z,13.03
2019-04-21T14:14:12.614Z,12.53
2019-04-21T14:16:42.332Z,13.48
2019-04-21T14:19:11.331Z,14.18
2019-04-21T14:21:41.270Z,12.88
2019-04-21T14:24:10.896Z,11.45
2019-04-21T14:26:40.584Z,10.48
2019-04-21T14:29:09.865Z,10.15
2019-04-21T14:31:40.184Z,11.55
2019-04-21T14:34:10.083Z,14.45
2019-04-21T14:36:39.042Z,11.85
2019-04-21T14:39:12.407Z,10.18
2019-04-21T14:41:44.168Z,9.80
2019-04-21T14:44:15.279Z,12.23
2019-04-21T14:46:58.389Z,12.70
2019-04-21T14:49:33.120Z,13.98
2019-04-21T14:52:05.008Z,11.45
2019-04-21T14:54:36.405Z,12.13
2019-04-21T14:57:07.113Z,13.72
2019-04-21T14:59:37.497Z,10.35
2019-04-21T15:02:07.731Z,18.65
2019-04-21T15:04:37.599Z,11.83
2019-04-21T15:07:07.639Z,9.63
2019-04-21T15:09:39.294Z,11.25
2019-04-21T15:12:07.956Z,9.90
2019-04-21T15:14:37.955Z,11.83
2019-04-21T15:17:07.482Z,14.55
2019-04-21T15:19:36.455Z,14.75
2019-04-21T15:22:06.294Z,8.78
2019-04-21T15:24:36.258Z,12.68
2019-04-21T15:27:05.402Z,7.95
2019-04-21T15:29:34.981Z,8.23
2019-04-21T15:32:04.323Z,12.23
2019-04-21T15:34:34.020Z,13.00
2019-04-21T15:37:04.006Z,10.70
2019-04-21T15:39:34.016Z,14.55
2019-04-21T15:42:02.965Z,12.98
2019-04-21T15:44:32.479Z,15.15
2019-04-21T15:47:02.059Z,11.20
2019-04-21T15:49:42.351Z,12.50
2019-04-21T15:52:04.142Z,11.75
2019-04-21T15:54:34.296Z,15.25
2019-04-21T15:57:04.956Z,21.60
2019-04-21T15:59:36.742Z,12.47
2019-04-21T16:02:24.570Z,10.18
2019-04-21T16:04:54.741Z,10.80
2019-04-21T16:07:24.430Z,11.20
2019-04-21T16:09:54.367Z,10.78
2019-04-21T16:12:23.214Z,11.75
2019-04-21T16:14:52.534Z,14.53
2019-04-21T16:17:21.481Z,12.28
2019-04-21T16:19:50.059Z,16.55
2019-04-21T16:22:18.965Z,10.85
2019-04-21T16:24:47.794Z,10.32
2019-04-21T16:27:17.388Z,15.58
2019-04-21T16:29:46.089Z,12.60
2019-04-21T16:32:17.546Z,14.07
2019-04-21T16:34:50.793Z,13.88
2019-04-21T16:37:15.690Z,13.72
2019-04-21T16:39:45.318Z,12.98
2019-04-21T16:42:14.270Z,13.70
2019-04-21T16:44:43.198Z,14.73
2019-04-21T16:47:12.104Z,16.55
2019-04-21T16:49:40.666Z,17.30
2019-04-21T16:52:12.087Z,15.25
2019-04-21T16:54:44.008Z,18.17
2019-04-21T16:57:17.675Z,13.43
2019-04-21T16:59:48.599Z,12.43
2019-04-21T17:02:18.653Z,15.15
2019-04-21T17:04:48.898Z,17.00
2019-04-21T17:07:18.054Z,16.82
2019-04-21T17:09:48.519Z,17.50
2019-04-21T17:12:18.766Z,13.50
2019-04-21T17:15:01.522Z,15.13
2019-04-21T17:17:47.921Z,16.60
2019-04-21T17:19:52.117Z,15.00
2019-04-21T17:22:19.566Z,16.65
2019-04-21T17:24:48.670Z,16.55
2019-04-21T17:27:17.418Z,14.55
2019-04-21T17:29:46.328Z,15.78
2019-04-21T17:32:16.416Z,15.45
2019-04-21T17:34:45.830Z,15.32
2019-04-21T17:37:15.251Z,11.75
2019-04-21T17:39:45.011Z,20.25
2019-04-21T17:42:24.301Z,12.93
2019-04-21T17:44:45.411Z,10.03
2019-04-21T17:47:25.605Z,13.18
2019-04-21T17:49:46.730Z,9.63
2019-04-21T17:52:36.173Z,9.48
2019-04-21T17:55:16.800Z,12.35
2019-04-21T17:57:57.157Z,11.53
2019-04-21T18:00:49.387Z,14.60
2019-04-21T18:03:02.083Z,11.48
2019-04-21T18:05:31.941Z,10.05
2019-04-21T18:07:55.828Z,9.35
2019-04-21T18:10:27.372Z,8.58
2019-04-21T18:12:52.100Z,8.90
2019-04-21T18:15:29.093Z,9.20
2019-04-21T18:17:44.962Z,11.57
2019-04-21T18:20:17.467Z,7.30
2019-04-21T18:23:09.617Z,9.25
2019-04-21T18:25:45.079Z,11.00
2019-04-21T18:28:05.207Z,13.00
2019-04-21T18:30:50.363Z,7.53
2019-04-21T18:33:26.589Z,8.90
2019-04-21T18:36:07.055Z,10.65
2019-04-21T18:39:06.981Z,10.25
2019-04-21T18:41:23.652Z,11.05
2019-04-21T18:44:23.685Z,14.45
2019-04-21T18:46:58.315Z,16.35
2019-04-21T18:49:21.605Z,12.73
2019-04-21T18:52:01.237Z,10.08
2019-04-21T18:54:47.100Z,17.40
2019-04-21T18:57:08.081Z,13.30
2019-04-21T18:59:34.593Z,14.33
2019-04-21T19:02:05.914Z,10.00
2019-04-21T19:04:33.268Z,12.73
2019-04-21T19:07:12.986Z,12.55
2019-04-21T19:10:11.329Z,13.85
2019-04-21T19:12:26.369Z,12.82
2019-04-21T19:14:52.209Z,13.05
2019-04-21T19:20:02.621Z,14.90
2019-04-21T19:22:31.346Z,12.80
2019-04-21T19:24:59.447Z,14.43
2019-04-21T19:27:36.851Z,12.65
2019-04-21T19:32:25.610Z,16.95
2019-04-21T19:34:40.882Z,15.30
2019-04-21T19:37:14.391Z,14.60
2019-04-21T19:39:53.015Z,16.05
2019-04-21T19:42:19.637Z,15.30
2019-04-21T19:44:56.829Z,20.75
2019-04-21T19:47:35.422Z,14.05
2019-04-21T19:50:00.243Z,13.35
2019-04-21T19:52:28.236Z,11.68
2019-04-21T19:54:46.771Z,14.55
2019-04-21T19:57:13.241Z,16.20
2019-04-21T19:59:48.049Z,16.95
2019-04-21T20:02:12.384Z,17.55
2019-04-21T20:04:50.166Z,15.68
2019-04-21T20:07:27.541Z,15.63
2019-04-21T20:10:05.172Z,16.20
2019-04-21T20:12:35.485Z,16.17
2019-04-21T20:15:04.857Z,12.53
2019-04-21T20:17:31.270Z,15.55
2019-04-21T20:19:44.456Z,18.98
2019-04-21T20:22:14.612Z,22.25
2019-04-21T20:24:49.998Z,12.03
2019-04-21T20:27:19.790Z,15.65
2019-04-21T20:30:02.254Z,21.12
2019-04-21T20:32:31.707Z,11.88
2019-04-21T20:35:06.743Z,15.83
2019-04-21T20:37:33.946Z,17.65
2019-04-21T20:39:56.214Z,13.43
2019-04-21T20:42:32.642Z,16.52
2019-04-21T20:45:24.961Z,18.62
2019-04-21T20:47:29.357Z,19.77
2019-04-21T20:50:03.015Z,21.48
2019-04-21T20:52:41.817Z,15.88
2019-04-21T20:55:09.128Z,18.37
2019-04-21T20:57:35.322Z,18.70
2019-04-21T21:00:12.283Z,21.60
2019-04-21T21:02:44.759Z,21.23
2019-04-21T21:04:59.017Z,23.87
2019-04-21T21:07:56.993Z,17.37
2019-04-21T21:10:10.717Z,19.37
2019-04-21T21:12:52.726Z,17.15
2019-04-21T21:15:03.424Z,19.42
2019-04-21T21:17:50.276Z,21.37
2019-04-21T21:20:15.016Z,14.28
2019-04-21T21:22:39.334Z,20.62
2019-04-21T21:25:23.491Z,17.60
2019-04-21T21:27:41.581Z,16.00
2019-04-21T21:30:09.716Z,17.10
2019-04-21T21:32:48.193Z,13.85
2019-04-21T21:35:16.295Z,13.22
2019-04-21T21:37:49.525Z,16.80
2019-04-21T21:40:18.431Z,15.48
2019-04-21T21:42:35.422Z,14.55
2019-04-21T21:45:04.877Z,22.65
2019-04-21T21:47:47.511Z,18.15
2019-04-21T21:50:11.337Z,16.67
2019-04-21T21:52:46.513Z,22.62
2019-04-21T21:55:01.627Z,20.62
2019-04-21T21:57:32.935Z,16.67
2019-04-21T22:00:04.714Z,20.92
2019-04-21T22:02:35.950Z,23.05
2019-04-21T22:05:07.233Z,19.30
2019-04-21T22:07:33.692Z,21.82
2019-04-21T22:10:02.520Z,27.13
2019-04-21T22:12:44.888Z,21.40
2019-04-21T22:15:13.960Z,25.23
2019-04-21T22:17:51.149Z,17.05
2019-04-21T22:20:27.185Z,25.65
2019-04-21T22:22:48.713Z,19.50
2019-04-21T22:25:14.116Z,19.35
2019-04-21T22:27:41.058Z,18.98
2019-04-21T22:30:12.807Z,19.42
2019-04-21T22:32:48.967Z,18.62
2019-04-21T22:35:23.916Z,24.30
2019-04-21T22:37:54.762Z,18.37
2019-04-21T22:40:25.871Z,22.77
2019-04-21T22:42:59.380Z,19.60
2019-04-21T22:45:17.778Z,20.92
2019-04-21T22:47:49.288Z,21.35
2019-04-21T22:50:24.511Z,19.98
2019-04-21T22:52:59.507Z,21.75
2019-04-21T22:55:27.432Z,23.65
2019-04-21T22:57:56.932Z,19.77
2019-04-21T23:00:30.149Z,25.30
2019-04-21T23:03:05.535Z,23.02
2019-04-21T23:05:33.484Z,16.70
2019-04-21T23:08:03.300Z,18.05
2019-04-21T23:10:31.552Z,15.40
2019-04-21T23:13:07.082Z,16.75
2019-04-21T23:15:39.470Z,15.72
2019-04-21T23:18:22.064Z,19.57
2019-04-21T23:20:53.685Z,25.48
2019-04-21T23:23:22.114Z,19.12
2019-04-21T23:25:45.964Z,23.45
2019-04-21T23:28:17.181Z,21.73
2019-04-21T23:30:56.155Z,18.55
2019-04-21T23:33:08.715Z,23.70
2019-04-21T23:35:40.016Z,20.80
2019-04-21T23:38:08.615Z,22.10
2019-04-21T23:40:41.398Z,23.47
2019-04-21T23:43:13.319Z,24.50
2019-04-21T23:45:40.916Z,26.20
2019-04-21T23:48:23.747Z,27.13
2019-04-21T23:50:48.825Z,22.90
2019-04-21T23:53:09.557Z,22.30
2019-04-21T23:55:39.077Z,23.98
2019-04-21T23:58:13.382Z,21.23
